Time;durP1;ratioP1;P1;durP2;ratioP2;P2;SDS_P1;SDS_P2;PMS_P1;PMS_P2;Temp;Humidity;BMP_temperature;BMP_pressure;BME280_temperature;BME280_humidity;BME280_pressure;Samples;Min_cycle;Max_cycle;Signal;HPM_P1;HPM_P2
2023/01/23 00:02:06;;;;;;;2.80;2.60;;;;;;;;;;4963282;28;20221;-87
2023/01/23 00:04:32;;;;;;;2.97;2.73;;;;;;;;;;4959177;28;20238;-88
2023/01/23 00:06:58;;;;;;;2.87;2.67;;;;;;;;;;4958367;28;20221;-86
2023/01/23 00:09:23;;;;;;;3.33;3.13;;;;;;;;;;4948059;28;20230;-86
2023/01/23 00:11:49;;;;;;;2.97;2.77;;;;;;;;;;4960800;28;20227;-87
2023/01/23 00:14:17;;;;;;;3.00;2.80;;;;;;;;;;4971146;28;20213;-87
2023/01/23 00:16:44;;;;;;;3.47;3.17;;;;;;;;;;4964869;28;20284;-86
2023/01/23 00:19:11;;;;;;;3.13;2.80;;;;;;;;;;4957949;28;20683;-88
2023/01/23 00:21:39;;;;;;;3.23;2.93;;;;;;;;;;4958794;28;20226;-88
2023/01/23 00:24:08;;;;;;;3.07;2.87;;;;;;;;;;4942581;28;20639;-87
2023/01/23 00:26:33;;;;;;;3.30;3.07;;;;;;;;;;4965818;28;20240;-87
2023/01/23 00:28:59;;;;;;;3.57;3.20;;;;;;;;;;4952019;28;20221;-87
2023/01/23 00:31:30;;;;;;;3.20;3.00;;;;;;;;;;4944445;28;20236;-86
2023/01/23 00:33:57;;;;;;;3.93;3.63;;;;;;;;;;4954340;28;20218;-87
2023/01/23 00:36:23;;;;;;;3.33;3.10;;;;;;;;;;4956721;28;20250;-87
2023/01/23 00:38:51;;;;;;;3.23;2.93;;;;;;;;;;4947252;28;20222;-87
2023/01/23 00:41:17;;;;;;;3.60;3.30;;;;;;;;;;4950145;28;20214;-87
2023/01/23 00:43:43;;;;;;;4.67;2.97;;;;;;;;;;4963211;28;20221;-88
2023/01/23 00:46:09;;;;;;;2.93;2.73;;;;;;;;;;4961579;28;20302;-86
2023/01/23 00:48:38;;;;;;;4.17;3.03;;;;;;;;;;4957069;28;20230;-88
2023/01/23 00:51:06;;;;;;;2.60;2.40;;;;;;;;;;4968517;28;20292;-86
2023/01/23 00:53:34;;;;;;;3.70;3.23;;;;;;;;;;4961946;28;20237;-87
2023/01/23 00:56:00;;;;;;;2.97;2.77;;;;;;;;;;4966604;28;20224;-87
2023/01/23 00:58:26;;;;;;;3.33;3.03;;;;;;;;;;4935194;28;20692;-86
2023/01/23 01:00:52;;;;;;;3.77;3.47;;;;;;;;;;4949727;28;20226;-86
2023/01/23 01:03:20;;;;;;;3.40;3.10;;;;;;;;;;4970642;28;20222;-87
2023/01/23 01:05:46;;;;;;;3.43;3.23;;;;;;;;;;4963891;28;20230;-87
2023/01/23 01:08:14;;;;;;;3.27;3.00;;;;;;;;;;4957622;28;20676;-86
2023/01/23 01:10:42;;;;;;;3.33;3.03;;;;;;;;;;4970479;28;20223;-87
2023/01/23 01:13:08;;;;;;;3.57;3.27;;;;;;;;;;4929391;28;20621;-87
2023/01/23 01:15:33;;;;;;;3.80;3.50;;;;;;;;;;4953581;28;20233;-87
2023/01/23 01:17:59;;;;;;;3.93;3.63;;;;;;;;;;4967550;28;20257;-87
2023/01/23 01:20:26;;;;;;;3.50;3.20;;;;;;;;;;4943739;28;20721;-85
2023/01/23 01:22:54;;;;;;;3.67;3.33;;;;;;;;;;4966919;28;20290;-86
2023/01/23 01:25:20;;;;;;;3.83;3.53;;;;;;;;;;4945978;28;20321;-87
2023/01/23 01:27:45;;;;;;;3.40;3.10;;;;;;;;;;4954507;28;20219;-86
2023/01/23 01:30:15;;;;;;;3.73;3.43;;;;;;;;;;4961372;28;20207;-87
2023/01/23 01:32:40;;;;;;;3.50;3.30;;;;;;;;;;4974479;28;20233;-86
2023/01/23 01:35:06;;;;;;;3.90;3.53;;;;;;;;;;4958253;28;20640;-86
2023/01/23 01:37:33;;;;;;;4.87;3.70;;;;;;;;;;4957561;28;20233;-86
2023/01/23 01:40:01;;;;;;;5.93;3.83;;;;;;;;;;4953225;28;20285;-87
2023/01/23 01:42:29;;;;;;;4.33;4.03;;;;;;;;;;4958906;28;20993;-86
2023/01/23 01:44:58;;;;;;;4.27;3.60;;;;;;;;;;4956974;28;20247;-86
2023/01/23 01:47:24;;;;;;;6.50;4.27;;;;;;;;;;4945243;28;20226;-86
2023/01/23 01:49:51;;;;;;;3.87;3.57;;;;;;;;;;4966452;28;20242;-86
2023/01/23 01:52:17;;;;;;;4.33;3.93;;;;;;;;;;4961785;28;20217;-86
2023/01/23 01:54:47;;;;;;;4.20;3.80;;;;;;;;;;4955490;28;20222;-86
2023/01/23 01:57:29;;;;;;;3.83;3.53;;;;;;;;;;4971561;28;20214;-86
2023/01/23 02:00:07;;;;;;;5.00;4.23;;;;;;;;;;4989521;28;20475;-86
2023/01/23 02:02:52;;;;;;;3.80;3.50;;;;;;;;;;4953409;28;20241;-87
2023/01/23 02:05:20;;;;;;;4.60;3.67;;;;;;;;;;4954664;28;20234;-85
2023/01/23 02:07:55;;;;;;;5.73;4.07;;;;;;;;;;4959236;28;20215;-85
2023/01/23 02:10:21;;;;;;;4.43;4.00;;;;;;;;;;4942824;28;20690;-87
2023/01/23 02:12:50;;;;;;;5.07;4.40;;;;;;;;;;4958669;28;20260;-86
2023/01/23 02:15:16;;;;;;;6.37;4.50;;;;;;;;;;4958495;28;20306;-86
2023/01/23 02:17:42;;;;;;;5.37;4.20;;;;;;;;;;4967498;28;20305;-85
2023/01/23 02:20:16;;;;;;;4.80;4.00;;;;;;;;;;4972200;28;20339;-85
2023/01/23 02:23:00;;;;;;;4.80;4.10;;;;;;;;;;4976705;28;20224;-86
2023/01/23 02:25:44;;;;;;;4.83;4.03;;;;;;;;;;4967875;28;20230;-85
2023/01/23 02:28:14;;;;;;;4.47;4.07;;;;;;;;;;4974824;28;20301;-87
2023/01/23 02:30:41;;;;;;;4.87;4.40;;;;;;;;;;4957959;28;20229;-86
2023/01/23 02:33:07;;;;;;;6.10;4.23;;;;;;;;;;4959755;28;20221;-87
2023/01/23 02:35:33;;;;;;;4.70;4.27;;;;;;;;;;4998448;28;20229;-86
2023/01/23 02:38:04;;;;;;;4.43;4.03;;;;;;;;;;4956097;28;20295;-86
2023/01/23 02:40:36;;;;;;;4.57;3.93;;;;;;;;;;4948696;28;20250;-86
2023/01/23 02:43:07;;;;;;;5.00;4.47;;;;;;;;;;4969883;28;20324;-86
2023/01/23 02:45:39;;;;;;;4.60;4.20;;;;;;;;;;4968003;28;20226;-86
2023/01/23 02:48:06;;;;;;;5.03;4.57;;;;;;;;;;4957217;28;20675;-86
2023/01/23 02:50:32;;;;;;;4.97;4.57;;;;;;;;;;4973032;28;20882;-86
2023/01/23 02:52:58;;;;;;;5.10;4.27;;;;;;;;;;4946661;28;20283;-86
2023/01/23 02:55:31;;;;;;;5.03;4.57;;;;;;;;;;4985409;28;20222;-86
2023/01/23 03:00:14;;;;;;;4.73;4.30;;;;;;;;;;4951175;28;20230;-86
2023/01/23 03:00:51;;;;;;;5.13;4.47;;;;;;;;;;4980805;28;20233;-85
2023/01/23 03:03:20;;;;;;;4.87;4.33;;;;;;;;;;4946108;28;20229;-85
2023/01/23 03:05:46;;;;;;;7.03;4.50;;;;;;;;;;4969637;28;20237;-85
2023/01/23 03:08:11;;;;;;;5.20;4.27;;;;;;;;;;4965483;28;20218;-85
2023/01/23 03:10:39;;;;;;;4.70;4.27;;;;;;;;;;4969890;28;20448;-86
2023/01/23 03:13:09;;;;;;;4.60;4.20;;;;;;;;;;4965898;28;20682;-85
2023/01/23 03:15:37;;;;;;;5.20;4.60;;;;;;;;;;4971296;28;20297;-85
2023/01/23 03:18:05;;;;;;;4.83;4.40;;;;;;;;;;4982536;28;20214;-85
2023/01/23 03:20:40;;;;;;;5.73;4.97;;;;;;;;;;4969097;28;20230;-85
2023/01/23 03:23:06;;;;;;;6.67;4.77;;;;;;;;;;4963126;28;20664;-85
2023/01/23 03:25:33;;;;;;;5.33;4.83;;;;;;;;;;4955208;28;20940;-86
2023/01/23 03:30:11;;;;;;;4.90;4.30;;;;;;;;;;4958544;28;20217;-85
2023/01/23 03:30:49;;;;;;;9.90;4.77;;;;;;;;;;4962305;28;20222;-86
2023/01/23 03:33:14;;;;;;;4.60;4.03;;;;;;;;;;4960655;28;20964;-87
2023/01/23 03:35:42;;;;;;;5.23;4.73;;;;;;;;;;4964401;28;20226;-85
2023/01/23 03:38:08;;;;;;;4.50;3.97;;;;;;;;;;4970044;28;20214;-86
2023/01/23 03:43:18;;;;;;;5.67;4.47;;;;;;;;;;4958558;28;20226;-87
2023/01/23 03:45:47;;;;;;;4.80;4.40;;;;;;;;;;4965427;28;20230;-87
2023/01/23 03:48:17;;;;;;;5.00;4.50;;;;;;;;;;4948370;28;20577;-87
2023/01/23 03:50:44;;;;;;;4.77;4.30;;;;;;;;;;4936711;28;20222;-86
2023/01/23 03:53:12;;;;;;;5.03;4.60;;;;;;;;;;4954100;28;20605;-86
2023/01/23 03:55:37;;;;;;;5.90;5.17;;;;;;;;;;4935998;28;20298;-86
2023/01/23 03:58:05;;;;;;;5.00;4.50;;;;;;;;;;4956452;28;20218;-87
2023/01/23 04:00:32;;;;;;;4.77;4.47;;;;;;;;;;4949283;28;20242;-87
2023/01/23 04:03:03;;;;;;;5.53;4.97;;;;;;;;;;4971852;28;20249;-87
2023/01/23 04:05:28;;;;;;;5.77;5.07;;;;;;;;;;4967725;28;20277;-85
2023/01/23 04:07:56;;;;;;;7.57;4.97;;;;;;;;;;4949269;28;20248;-85
2023/01/23 04:10:24;;;;;;;5.73;5.10;;;;;;;;;;4952883;28;20226;-85
2023/01/23 04:12:53;;;;;;;5.87;5.10;;;;;;;;;;4968711;28;20234;-85
2023/01/23 04:15:19;;;;;;;5.93;5.03;;;;;;;;;;4945216;28;20226;-85
2023/01/23 04:17:44;;;;;;;5.77;5.27;;;;;;;;;;4963902;28;20238;-87
2023/01/23 04:20:11;;;;;;;7.27;5.30;;;;;;;;;;4947651;28;20301;-86
2023/01/23 04:22:40;;;;;;;6.17;5.50;;;;;;;;;;4944101;28;20229;-87
2023/01/23 04:25:06;;;;;;;7.03;4.90;;;;;;;;;;4979321;28;20225;-86
2023/01/23 04:27:35;;;;;;;5.90;5.40;;;;;;;;;;4978467;28;20221;-86
2023/01/23 04:30:01;;;;;;;6.00;5.40;;;;;;;;;;4939510;28;20282;-86
2023/01/23 04:32:26;;;;;;;8.93;5.73;;;;;;;;;;4989629;28;20218;-86
2023/01/23 04:34:55;;;;;;;6.60;5.63;;;;;;;;;;4973074;28;20237;-87
2023/01/23 04:37:21;;;;;;;6.70;5.70;;;;;;;;;;4958560;28;20222;-87
2023/01/23 04:39:49;;;;;;;8.57;6.00;;;;;;;;;;4964574;28;20280;-86
2023/01/23 04:42:20;;;;;;;6.70;5.47;;;;;;;;;;4958656;28;20225;-87
2023/01/23 04:45:07;;;;;;;7.77;5.67;;;;;;;;;;4964826;28;20233;-87
2023/01/23 04:48:05;;;;;;;6.27;5.53;;;;;;;;;;4948862;28;20691;-85
2023/01/23 04:50:33;;;;;;;6.90;6.17;;;;;;;;;;4959252;28;20316;-87
2023/01/23 04:52:59;;;;;;;6.67;6.07;;;;;;;;;;4966690;28;20649;-86
2023/01/23 04:55:27;;;;;;;7.33;6.57;;;;;;;;;;4957237;28;20225;-87
2023/01/23 04:57:54;;;;;;;7.53;6.83;;;;;;;;;;4972015;28;20225;-87
2023/01/23 05:00:23;;;;;;;6.97;6.27;;;;;;;;;;4968292;28;20241;-87
2023/01/23 05:02:52;;;;;;;6.90;6.20;;;;;;;;;;4959478;28;20226;-87
2023/01/23 05:05:20;;;;;;;6.80;6.20;;;;;;;;;;4966975;28;20330;-87
2023/01/23 05:07:50;;;;;;;7.00;6.30;;;;;;;;;;4950903;28;20230;-86
2023/01/23 05:10:16;;;;;;;6.80;6.10;;;;;;;;;;4917301;28;20262;-87
2023/01/23 05:12:42;;;;;;;6.37;5.77;;;;;;;;;;4964514;28;20225;-87
2023/01/23 05:15:09;;;;;;;6.77;5.47;;;;;;;;;;4960604;28;20218;-86
2023/01/23 05:17:38;;;;;;;9.30;5.93;;;;;;;;;;4960475;28;20283;-87
2023/01/23 05:20:05;;;;;;;5.73;5.13;;;;;;;;;;4955638;28;20309;-85
2023/01/23 05:22:31;;;;;;;6.37;5.77;;;;;;;;;;4937678;28;20280;-85
2023/01/23 05:24:57;;;;;;;6.93;5.57;;;;;;;;;;4961588;28;20769;-87
2023/01/23 05:27:29;;;;;;;7.57;5.37;;;;;;;;;;4967685;28;20226;-85
2023/01/23 05:29:55;;;;;;;6.17;5.60;;;;;;;;;;4993786;28;20226;-87
2023/01/23 05:32:23;;;;;;;7.73;6.17;;;;;;;;;;4965656;28;20692;-87
2023/01/23 05:35:04;;;;;;;6.73;5.53;;;;;;;;;;4951762;28;20219;-86
2023/01/23 05:37:29;;;;;;;9.93;6.30;;;;;;;;;;4970088;28;20233;-85
2023/01/23 05:39:59;;;;;;;7.33;6.10;;;;;;;;;;4966048;28;20215;-87
2023/01/23 05:42:37;;;;;;;6.17;5.50;;;;;;;;;;4975936;28;20229;-86
2023/01/23 05:45:22;;;;;;;6.47;5.63;;;;;;;;;;4957065;28;20257;-85
2023/01/23 05:47:47;;;;;;;7.60;5.50;;;;;;;;;;4967277;28;20230;-87
2023/01/23 05:50:17;;;;;;;6.33;5.30;;;;;;;;;;4955571;28;20317;-85
2023/01/23 05:52:48;;;;;;;6.30;5.70;;;;;;;;;;4952466;28;20229;-85
2023/01/23 05:55:14;;;;;;;7.57;6.07;;;;;;;;;;4955331;28;20198;-87
2023/01/23 05:57:43;;;;;;;6.43;5.63;;;;;;;;;;4979500;28;20265;-87
2023/01/23 06:00:27;;;;;;;8.23;6.27;;;;;;;;;;4980974;28;20266;-86
2023/01/23 06:03:15;;;;;;;8.00;6.17;;;;;;;;;;4975732;28;20217;-86
2023/01/23 06:06:10;;;;;;;8.20;6.37;;;;;;;;;;4979967;28;20202;-86
2023/01/23 06:08:38;;;;;;;11.87;7.27;;;;;;;;;;4982427;28;20233;-87
2023/01/23 06:11:05;;;;;;;6.73;5.93;;;;;;;;;;4975107;28;20235;-84
2023/01/23 06:13:31;;;;;;;9.60;6.57;;;;;;;;;;4985434;28;20230;-86
2023/01/23 06:15:59;;;;;;;9.77;6.90;;;;;;;;;;5009699;28;20242;-86
2023/01/23 06:18:29;;;;;;;9.63;6.77;;;;;;;;;;4978025;28;20246;-85
2023/01/23 06:20:59;;;;;;;15.83;7.10;;;;;;;;;;4972997;28;20229;-85
2023/01/23 06:23:24;;;;;;;8.53;6.67;;;;;;;;;;4952321;28;20234;-87
2023/01/23 06:25:50;;;;;;;8.30;6.57;;;;;;;;;;4978969;28;20368;-85
2023/01/23 06:28:16;;;;;;;7.90;6.53;;;;;;;;;;4964549;28;20290;-86
2023/01/23 06:30:42;;;;;;;7.70;6.63;;;;;;;;;;4938942;28;20222;-87
2023/01/23 06:33:19;;;;;;;7.30;6.43;;;;;;;;;;4973436;28;20313;-86
2023/01/23 06:35:45;;;;;;;8.10;6.20;;;;;;;;;;4967517;28;20226;-86
2023/01/23 06:38:13;;;;;;;9.33;7.00;;;;;;;;;;4955046;28;20874;-87
2023/01/23 06:40:38;;;;;;;6.73;5.97;;;;;;;;;;4987860;28;20231;-86
2023/01/23 06:43:26;;;;;;;7.07;6.37;;;;;;;;;;4965260;28;20222;-86
2023/01/23 06:45:55;;;;;;;8.53;6.63;;;;;;;;;;4952389;28;20245;-88
2023/01/23 06:48:20;;;;;;;10.00;6.50;;;;;;;;;;4958058;28;20224;-88
2023/01/23 06:50:47;;;;;;;11.17;7.50;;;;;;;;;;4976085;28;20262;-89
2023/01/23 06:53:13;;;;;;;8.03;6.93;;;;;;;;;;4966691;28;20290;-87
2023/01/23 06:55:39;;;;;;;8.87;6.60;;;;;;;;;;4957847;28;20672;-88
2023/01/23 06:58:05;;;;;;;8.67;6.13;;;;;;;;;;4957883;28;20230;-86
2023/01/23 07:00:34;;;;;;;8.80;6.67;;;;;;;;;;4968261;28;20583;-87
2023/01/23 07:03:03;;;;;;;9.30;6.60;;;;;;;;;;4972434;28;20303;-86
2023/01/23 07:05:31;;;;;;;9.70;6.07;;;;;;;;;;4966336;28;20716;-86
2023/01/23 07:07:59;;;;;;;7.00;6.30;;;;;;;;;;4957821;28;20343;-87
2023/01/23 07:10:25;;;;;;;10.80;6.63;;;;;;;;;;4939392;28;20255;-88
2023/01/23 07:12:50;;;;;;;6.80;6.10;;;;;;;;;;4973102;28;20227;-86
2023/01/23 07:15:16;;;;;;;10.77;7.47;;;;;;;;;;4956235;28;20218;-86
2023/01/23 07:17:42;;;;;;;6.97;6.27;;;;;;;;;;4963381;28;20214;-87
2023/01/23 07:20:08;;;;;;;9.00;6.60;;;;;;;;;;4944316;28;20222;-86
2023/01/23 07:22:39;;;;;;;7.53;6.43;;;;;;;;;;4959207;28;20230;-87
2023/01/23 07:25:08;;;;;;;11.00;6.90;;;;;;;;;;4973054;28;20384;-86
2023/01/23 07:27:33;;;;;;;8.93;6.50;;;;;;;;;;4980956;28;20237;-86
2023/01/23 07:29:59;;;;;;;7.90;6.97;;;;;;;;;;4959786;28;20211;-86
2023/01/23 07:32:24;;;;;;;8.97;7.63;;;;;;;;;;4964718;28;20225;-87
2023/01/23 07:34:52;;;;;;;12.13;8.00;;;;;;;;;;4946041;28;20321;-87
2023/01/23 07:37:20;;;;;;;8.47;7.50;;;;;;;;;;4962763;28;20233;-87
2023/01/23 07:39:49;;;;;;;9.27;7.97;;;;;;;;;;4945237;28;20246;-85
2023/01/23 07:42:14;;;;;;;11.83;8.23;;;;;;;;;;4943682;28;20254;-87
2023/01/23 07:44:40;;;;;;;8.60;7.57;;;;;;;;;;4942080;28;20257;-85
2023/01/23 07:47:08;;;;;;;9.83;7.73;;;;;;;;;;4963138;28;20238;-87
2023/01/23 07:49:33;;;;;;;9.70;7.80;;;;;;;;;;4954282;28;20237;-85
2023/01/23 07:51:59;;;;;;;9.57;8.07;;;;;;;;;;4977386;28;20230;-87
2023/01/23 07:54:24;;;;;;;11.77;7.60;;;;;;;;;;4949066;28;20222;-87
2023/01/23 07:56:52;;;;;;;12.17;8.70;;;;;;;;;;4947204;28;20230;-87
2023/01/23 07:59:18;;;;;;;11.33;8.63;;;;;;;;;;4966331;28;20222;-85
2023/01/23 08:01:47;;;;;;;12.87;9.30;;;;;;;;;;4979853;28;20237;-87
2023/01/23 08:04:17;;;;;;;10.77;8.10;;;;;;;;;;4962990;28;20269;-87
2023/01/23 08:06:45;;;;;;;12.63;8.63;;;;;;;;;;4945928;28;20366;-86
2023/01/23 08:09:11;;;;;;;11.13;8.67;;;;;;;;;;4925364;28;20223;-87
2023/01/23 08:11:37;;;;;;;16.27;9.43;;;;;;;;;;4962200;28;20209;-87
2023/01/23 08:14:02;;;;;;;11.97;8.57;;;;;;;;;;4962317;28;20590;-85
2023/01/23 08:16:30;;;;;;;13.57;9.33;;;;;;;;;;4957723;28;20232;-87
2023/01/23 08:18:56;;;;;;;12.10;9.33;;;;;;;;;;4953034;28;20238;-88
2023/01/23 08:21:21;;;;;;;10.23;8.53;;;;;;;;;;4962890;28;20214;-87
2023/01/23 08:23:47;;;;;;;12.67;8.50;;;;;;;;;;4962845;28;20244;-87
2023/01/23 08:26:14;;;;;;;11.47;8.67;;;;;;;;;;4941828;28;20226;-87
2023/01/23 08:28:41;;;;;;;9.37;8.13;;;;;;;;;;4953774;28;20229;-89
2023/01/23 08:31:07;;;;;;;12.33;9.77;;;;;;;;;;4955401;28;20247;-86
2023/01/23 08:33:33;;;;;;;10.53;8.40;;;;;;;;;;4971880;28;20955;-89
2023/01/23 08:35:59;;;;;;;11.90;8.77;;;;;;;;;;4961558;28;20232;-87
2023/01/23 08:38:25;;;;;;;9.30;8.07;;;;;;;;;;4960017;28;20218;-88
2023/01/23 08:40:51;;;;;;;15.17;9.60;;;;;;;;;;4968923;28;20256;-87
2023/01/23 08:43:20;;;;;;;12.33;9.67;;;;;;;;;;4952153;28;20254;-88
2023/01/23 08:45:52;;;;;;;15.93;10.03;;;;;;;;;;4949857;28;20243;-85
2023/01/23 08:48:18;;;;;;;11.33;9.27;;;;;;;;;;4953175;28;20223;-86
2023/01/23 08:50:46;;;;;;;16.43;10.00;;;;;;;;;;4957099;28;20206;-85
2023/01/23 08:53:14;;;;;;;11.87;10.00;;;;;;;;;;4975948;28;20226;-86
2023/01/23 08:55:41;;;;;;;13.43;9.63;;;;;;;;;;4962607;28;20226;-87
2023/01/23 08:58:11;;;;;;;10.47;9.13;;;;;;;;;;4955142;28;20670;-86
2023/01/23 09:00:37;;;;;;;10.97;9.10;;;;;;;;;;4971566;28;20225;-87
2023/01/23 09:03:03;;;;;;;10.10;9.07;;;;;;;;;;4967201;28;20273;-86
2023/01/23 09:05:28;;;;;;;11.87;8.87;;;;;;;;;;4949064;28;20298;-88
2023/01/23 09:07:57;;;;;;;12.67;10.20;;;;;;;;;;4963730;28;20263;-87
2023/01/23 09:10:23;;;;;;;10.50;9.23;;;;;;;;;;4935669;28;20304;-87
2023/01/23 09:12:53;;;;;;;10.13;9.10;;;;;;;;;;4967622;28;20244;-87
2023/01/23 09:15:18;;;;;;;14.60;10.43;;;;;;;;;;4963355;28;20217;-86
2023/01/23 09:17:46;;;;;;;11.63;9.20;;;;;;;;;;4984543;28;20217;-87
2023/01/23 09:20:12;;;;;;;11.20;10.00;;;;;;;;;;4956856;28;20237;-87
2023/01/23 09:22:37;;;;;;;14.47;10.97;;;;;;;;;;4960542;28;20234;-88
2023/01/23 09:25:03;;;;;;;14.13;10.80;;;;;;;;;;4971361;28;20233;-86
2023/01/23 09:27:29;;;;;;;13.20;10.73;;;;;;;;;;4957729;28;20241;-87
2023/01/23 09:29:55;;;;;;;19.70;11.47;;;;;;;;;;4963605;28;20226;-89
2023/01/23 09:32:20;;;;;;;12.30;10.37;;;;;;;;;;4974074;28;20222;-88
2023/01/23 09:34:47;;;;;;;13.67;11.50;;;;;;;;;;4971883;28;20230;-86
2023/01/23 09:37:14;;;;;;;15.60;11.40;;;;;;;;;;4948695;28;20221;-87
2023/01/23 09:39:44;;;;;;;15.53;11.53;;;;;;;;;;4973896;28;20228;-88
2023/01/23 09:42:31;;;;;;;15.03;11.23;;;;;;;;;;4950742;28;20289;-88
2023/01/23 09:45:03;;;;;;;12.37;11.07;;;;;;;;;;4973577;28;20960;-88
2023/01/23 09:47:35;;;;;;;15.83;11.50;;;;;;;;;;4955527;28;20326;-87
2023/01/23 09:50:05;;;;;;;12.57;11.17;;;;;;;;;;4970773;28;20218;-88
2023/01/23 09:52:43;;;;;;;14.73;10.80;;;;;;;;;;4952611;28;20239;-86
2023/01/23 09:55:27;;;;;;;15.77;11.77;;;;;;;;;;4962269;28;20216;-88
2023/01/23 09:57:56;;;;;;;13.83;11.13;;;;;;;;;;4948368;28;20225;-85
2023/01/23 10:00:26;;;;;;;12.37;11.07;;;;;;;;;;4940518;28;20245;-86
2023/01/23 10:02:52;;;;;;;12.93;10.90;;;;;;;;;;4978244;28;20746;-86
2023/01/23 10:05:25;;;;;;;19.13;11.73;;;;;;;;;;4939327;28;20229;-86
2023/01/23 10:08:12;;;;;;;12.37;11.07;;;;;;;;;;4953337;28;20293;-86
2023/01/23 10:10:52;;;;;;;11.53;10.37;;;;;;;;;;4952103;28;20252;-86
2023/01/23 10:13:40;;;;;;;15.07;12.53;;;;;;;;;;4990340;28;20244;-87
2023/01/23 10:16:36;;;;;;;11.60;10.40;;;;;;;;;;4960025;28;20214;-87
2023/01/23 10:19:17;;;;;;;12.83;10.97;;;;;;;;;;4966129;28;20792;-87
2023/01/23 10:22:06;;;;;;;11.20;10.07;;;;;;;;;;4978774;28;20249;-86
2023/01/23 10:24:43;;;;;;;15.03;10.73;;;;;;;;;;4969647;28;20468;-86
2023/01/23 10:27:20;;;;;;;11.80;10.57;;;;;;;;;;4951977;28;20225;-85
2023/01/23 10:30:06;;;;;;;14.77;10.60;;;;;;;;;;4974015;28;20233;-87
2023/01/23 10:32:44;;;;;;;10.83;9.73;;;;;;;;;;4986706;28;20221;-88
2023/01/23 10:35:15;;;;;;;11.93;10.73;;;;;;;;;;4949485;28;20348;-87
2023/01/23 10:38:11;;;;;;;14.57;10.83;;;;;;;;;;4942484;28;20230;-87
2023/01/23 10:43:40;;;;;;;11.40;10.07;;;;;;;;;;4940401;28;20218;-88
2023/01/23 10:46:13;;;;;;;12.87;10.40;;;;;;;;;;4934653;28;20248;-86
2023/01/23 10:48:42;;;;;;;13.20;11.40;;;;;;;;;;4982146;28;20218;-86
2023/01/23 10:51:42;;;;;;;12.90;11.60;;;;;;;;;;4967942;28;20233;-86
2023/01/23 10:54:17;;;;;;;12.63;10.40;;;;;;;;;;4984935;28;20218;-87
2023/01/23 10:57:06;;;;;;;11.67;10.13;;;;;;;;;;4952739;28;20826;-87
2023/01/23 10:59:48;;;;;;;12.63;9.90;;;;;;;;;;4977893;28;20319;-86
2023/01/23 11:02:14;;;;;;;12.20;10.60;;;;;;;;;;4948852;28;20735;-86
2023/01/23 11:04:44;;;;;;;10.93;9.83;;;;;;;;;;4967914;28;20280;-87
2023/01/23 11:07:28;;;;;;;11.73;10.00;;;;;;;;;;4950765;28;20225;-87
2023/01/23 11:10:17;;;;;;;11.43;10.23;;;;;;;;;;4945654;28;20317;-85
2023/01/23 11:12:48;;;;;;;11.30;9.60;;;;;;;;;;4959229;28;20267;-88
2023/01/23 11:15:27;;;;;;;11.07;9.50;;;;;;;;;;4931010;28;20766;-86
2023/01/23 11:17:56;;;;;;;13.07;10.90;;;;;;;;;;4952264;28;20648;-87
2023/01/23 11:20:33;;;;;;;11.80;10.43;;;;;;;;;;4967702;28;20213;-89
2023/01/23 11:23:01;;;;;;;13.10;10.93;;;;;;;;;;4970384;28;20580;-88
2023/01/23 11:26:07;;;;;;;13.97;10.60;;;;;;;;;;4976876;28;20206;-89
2023/01/23 11:28:45;;;;;;;12.03;10.50;;;;;;;;;;4905751;29;20227;-87
2023/01/23 11:31:14;;;;;;;10.97;9.90;;;;;;;;;;4908916;29;20239;-87
2023/01/23 11:34:05;;;;;;;13.73;11.20;;;;;;;;;;4950266;28;20249;-87
2023/01/23 11:36:37;;;;;;;12.00;10.37;;;;;;;;;;4978802;28;20229;-88
2023/01/23 11:39:23;;;;;;;12.13;10.03;;;;;;;;;;4948038;28;20999;-87
2023/01/23 11:41:49;;;;;;;12.73;10.63;;;;;;;;;;4981471;28;20249;-86
2023/01/23 11:44:21;;;;;;;11.27;10.07;;;;;;;;;;4932308;28;20226;-87
2023/01/23 11:47:28;;;;;;;13.23;10.47;;;;;;;;;;4973774;28;20240;-88
2023/01/23 11:50:14;;;;;;;11.43;9.73;;;;;;;;;;4966180;28;20293;-87
2023/01/23 11:52:55;;;;;;;10.87;9.13;;;;;;;;;;4954230;28;20241;-88
2023/01/23 11:55:57;;;;;;;9.90;8.90;;;;;;;;;;4953835;28;20225;-88
2023/01/23 11:59:00;;;;;;;10.20;9.17;;;;;;;;;;4970133;28;20237;-87
2023/01/23 12:01:39;;;;;;;10.37;9.30;;;;;;;;;;4969036;28;20312;-87
2023/01/23 12:04:28;;;;;;;10.20;9.17;;;;;;;;;;4977541;28;20222;-86
2023/01/23 12:07:05;;;;;;;11.00;8.73;;;;;;;;;;4993372;28;20707;-87
2023/01/23 12:10:03;;;;;;;10.27;9.17;;;;;;;;;;4980766;28;20230;-86
2023/01/23 12:12:38;;;;;;;12.33;8.73;;;;;;;;;;4998547;28;20234;-88
2023/01/23 12:15:09;;;;;;;11.23;8.97;;;;;;;;;;4987541;28;20851;-87
2023/01/23 12:17:46;;;;;;;9.73;8.73;;;;;;;;;;4981379;28;20229;-87
2023/01/23 12:20:30;;;;;;;9.87;8.90;;;;;;;;;;4971736;28;20237;-87
2023/01/23 12:22:55;;;;;;;9.70;8.80;;;;;;;;;;4995831;28;20772;-85
2023/01/23 12:25:23;;;;;;;10.77;8.83;;;;;;;;;;4989980;28;20229;-87
2023/01/23 12:27:56;;;;;;;9.73;8.73;;;;;;;;;;4991841;28;20233;-86
2023/01/23 12:30:27;;;;;;;10.17;9.20;;;;;;;;;;4971978;28;20198;-87
2023/01/23 12:33:08;;;;;;;12.03;9.93;;;;;;;;;;4979378;28;20239;-86
2023/01/23 12:35:51;;;;;;;12.20;10.10;;;;;;;;;;4979716;28;20283;-87
2023/01/23 12:38:26;;;;;;;11.57;10.47;;;;;;;;;;4975125;28;20244;-87
2023/01/23 12:40:55;;;;;;;11.80;9.57;;;;;;;;;;4984565;28;20233;-85
2023/01/23 12:43:42;;;;;;;11.50;10.17;;;;;;;;;;4955875;28;20234;-86
2023/01/23 12:46:10;;;;;;;11.60;9.90;;;;;;;;;;4986755;28;20229;-88
2023/01/23 12:48:40;;;;;;;11.10;9.17;;;;;;;;;;4966116;28;20218;-85
2023/01/23 12:51:18;;;;;;;13.13;10.63;;;;;;;;;;4970449;28;20222;-86
2023/01/23 12:53:45;;;;;;;11.60;10.40;;;;;;;;;;4991207;28;20222;-87
2023/01/23 12:56:30;;;;;;;12.23;10.53;;;;;;;;;;4982209;28;20217;-85
2023/01/23 12:59:38;;;;;;;12.23;10.43;;;;;;;;;;4991307;28;20240;-88
2023/01/23 13:02:12;;;;;;;11.07;9.90;;;;;;;;;;4971687;28;20440;-87
2023/01/23 13:04:43;;;;;;;11.43;10.20;;;;;;;;;;4959569;28;20289;-87
2023/01/23 13:07:12;;;;;;;12.27;9.73;;;;;;;;;;4993468;28;20222;-86
2023/01/23 13:09:41;;;;;;;11.80;10.67;;;;;;;;;;4979863;28;20929;-86
2023/01/23 13:12:17;;;;;;;13.20;10.83;;;;;;;;;;4976043;28;20284;-87
2023/01/23 13:14:45;;;;;;;11.60;10.40;;;;;;;;;;4958661;28;20237;-87
2023/01/23 13:17:40;;;;;;;11.60;10.43;;;;;;;;;;4959796;28;20214;-87
2023/01/23 13:23:19;;;;;;;13.23;11.27;;;;;;;;;;4979284;28;20342;-88
2023/01/23 13:25:44;;;;;;;13.40;10.10;;;;;;;;;;4978066;28;20320;-86
2023/01/23 13:28:38;;;;;;;12.50;11.00;;;;;;;;;;4975344;28;20238;-85
2023/01/23 13:31:04;;;;;;;12.33;10.90;;;;;;;;;;4962700;28;20219;-88
2023/01/23 13:33:32;;;;;;;11.30;10.10;;;;;;;;;;4954297;28;20227;-89
2023/01/23 13:35:58;;;;;;;13.53;11.10;;;;;;;;;;4979282;28;20322;-85
2023/01/23 13:38:36;;;;;;;12.40;11.07;;;;;;;;;;4967389;28;20243;-87
2023/01/23 13:41:07;;;;;;;12.43;10.83;;;;;;;;;;4991212;28;20612;-87
2023/01/23 13:44:13;;;;;;;11.93;10.60;;;;;;;;;;4978345;28;20304;-88
2023/01/23 13:46:51;;;;;;;11.43;10.20;;;;;;;;;;4945332;28;20621;-88
2023/01/23 13:49:50;;;;;;;14.93;10.70;;;;;;;;;;4985542;28;20253;-88
2023/01/23 13:58:19;;;;;;;14.17;11.53;;;;;;;;;;4989080;28;20229;-87
2023/01/23 14:05:11;;;;;;;12.80;11.20;;;;;;;;;;4960606;28;20266;-87
2023/01/23 14:06:34;;;;;;;11.87;9.83;;;;;;;;;;4986929;28;20240;-86
2023/01/23 14:08:59;;;;;;;11.63;10.47;;;;;;;;;;4958852;28;20230;-88
2023/01/23 14:11:31;;;;;;;11.53;10.33;;;;;;;;;;4980370;28;20248;-87
2023/01/23 14:16:46;;;;;;;10.73;9.70;;;;;;;;;;4993625;28;20305;-85
2023/01/23 14:19:26;;;;;;;12.27;10.97;;;;;;;;;;4963059;28;20224;-85
2023/01/23 14:22:14;;;;;;;11.60;10.57;;;;;;;;;;4974218;28;20229;-87
2023/01/23 14:24:41;;;;;;;13.83;11.23;;;;;;;;;;4953454;28;20284;-88
2023/01/23 14:27:08;;;;;;;14.07;10.33;;;;;;;;;;4965436;28;20309;-87
2023/01/23 14:29:34;;;;;;;14.17;11.20;;;;;;;;;;4957244;28;20706;-87
2023/01/23 14:31:59;;;;;;;11.53;10.37;;;;;;;;;;4952841;28;20241;-87
2023/01/23 14:34:27;;;;;;;13.63;11.70;;;;;;;;;;4950117;28;20222;-85
2023/01/23 14:37:07;;;;;;;13.73;11.37;;;;;;;;;;4967357;28;20273;-87
2023/01/23 14:39:36;;;;;;;12.60;10.60;;;;;;;;;;4954145;28;20258;-87
2023/01/23 14:42:02;;;;;;;14.00;10.90;;;;;;;;;;4949156;28;20956;-84
2023/01/23 14:44:36;;;;;;;12.33;11.07;;;;;;;;;;4960598;28;20230;-85
2023/01/23 14:47:03;;;;;;;12.20;11.00;;;;;;;;;;4968991;28;20245;-86
2023/01/23 14:49:31;;;;;;;12.40;11.17;;;;;;;;;;4957811;28;20240;-86
2023/01/23 14:52:01;;;;;;;13.87;11.23;;;;;;;;;;4946589;28;20229;-86
2023/01/23 14:54:26;;;;;;;13.47;11.07;;;;;;;;;;4974101;28;20250;-88
2023/01/23 14:56:56;;;;;;;13.73;11.80;;;;;;;;;;4957948;28;20205;-86
2023/01/23 14:59:31;;;;;;;12.50;11.20;;;;;;;;;;4951470;28;20228;-87
2023/01/23 15:01:58;;;;;;;13.47;11.10;;;;;;;;;;4985047;28;20234;-86
2023/01/23 15:04:26;;;;;;;15.23;12.17;;;;;;;;;;4962850;28;20226;-87
2023/01/23 15:06:54;;;;;;;13.40;12.00;;;;;;;;;;4965516;28;20354;-87
2023/01/23 15:09:44;;;;;;;15.47;12.43;;;;;;;;;;4958391;28;20214;-87
2023/01/23 15:12:16;;;;;;;13.10;11.33;;;;;;;;;;4962580;28;20231;-86
2023/01/23 15:14:44;;;;;;;13.50;11.50;;;;;;;;;;4967875;28;20243;-87
2023/01/23 15:17:17;;;;;;;13.23;11.83;;;;;;;;;;4964889;28;20221;-85
2023/01/23 15:19:54;;;;;;;13.80;11.93;;;;;;;;;;4959015;28;20221;-87